Domov               UVHVVR             MKGP            O straneh              
ZDRAVSTVENO VARSTVO RASTLIN
  MREŽA AGROMET. POSTAJ
 ► PROGNOSTIČNA OBVESTILA
AGROMETEOROLOŠKI PODATKI -
ARSO
OBVLADOVANJE TVEGANJ ZARADI
NEUGODNIH VREMENSKIH RAZMER
  ► NARAVNE NESREČE
  ► SUŠA/MOČA
  ► NAMAKANJE
  ► ŽLED (gozdarstvo)
KARTOGRAFSKI PRIKAZI
SPLETNE POVEZAVE
PROJEKTI IN PUBLIKACIJE

AGROMETEOROLOŠKA MREŽA: VREMENSKE POSTAJE IN FENOLOŠKA OPAZOVANJA

Pregled podatkov za lokacijo Črnomelj, meteorološka postaja 859096

Pregled senzorjev na lokaciji

ID Ime Zadnja
vrednost
Datum
zadnje
spremembe
Tip
senzorja
4082 Omočenost lista (U) 0 U 19.7.2018 05:45 A730WET
4083 Padavine (mm) 0 mm 19.7.2018 05:45 Rain-O-Matic
4081 Relativna vlaga 2 m (% RH) 84,79 % RH 19.7.2018 05:45 50YA
4080 Temperatura 2 m (°C) 15,7 °C 19.7.2018 05:45 50YA

Pregled podatkov zadnjih 24 ur

Zap.
št.
Datum in čas Črnomelj
Omočenost
lista
Padavine Relativna
vlaga
2
m
Temperatura
2
m
1 19.7.2018 05:30
2 19.7.2018 05:00
3 19.7.2018 04:30 0 0 88 15,2
4 19.7.2018 04:00 0 0 87,6 15,3
5 19.7.2018 03:30 0 0 81,2 16,6
6 19.7.2018 03:00 0 0 76,1 17,3
7 19.7.2018 02:30 0 0 75,2 17,7
8 19.7.2018 02:00 0 0 74,7 17,9
9 19.7.2018 01:30 0 0 75,1 18,1
10 19.7.2018 01:00 0 0 76,2 18,2
11 19.7.2018 00:30 0 0 77,7 17,9
12 19.7.2018 00:00 0 0 78,3 18
13 18.7.2018 23:30 0 0 71,6 19,1
14 18.7.2018 23:00 0 0 70,4 19,3
15 18.7.2018 22:30 0 0 66,9 20
16 18.7.2018 22:00 0 0 59,8 21
17 18.7.2018 21:30 0 0 55,6 21,6
18 18.7.2018 21:00 0 0 54,9 21,8
19 18.7.2018 20:30 0 0 54,5 22,1
20 18.7.2018 20:00 0 0 53,2 22,6
21 18.7.2018 19:30 0 0 54,3 22,8
22 18.7.2018 19:00 0 0 56,1 23,1
23 18.7.2018 18:30 0 0 57,3 23,4
24 18.7.2018 18:00 0 0 56,6 24,5
25 18.7.2018 17:30 0 0 49 26,8
26 18.7.2018 17:00 0 0 50,5 26,6
27 18.7.2018 16:30 0 0 49,3 27,6
28 18.7.2018 16:00 0 0 47,8 28,6
29 18.7.2018 15:30 0 0 40,7 29,6
30 18.7.2018 15:00 0 0 28,8 32,5
31 18.7.2018 14:30 0 0 31,7 30,7
32 18.7.2018 14:00 0 0 28,6 32,5
33 18.7.2018 13:30 0 0 29 31,8
34 18.7.2018 13:00 0 0 34,4 31,1
35 18.7.2018 12:30 0 0 35,3 30,4
36 18.7.2018 12:00 0 0 43,4 29,8
37 18.7.2018 11:30 0 0 43,9 29,5
38 18.7.2018 11:00 0 0 47,7 27,3
39 18.7.2018 10:30 0 0 51,6 26
40 18.7.2018 10:00 0 0 54,1 25,2
41 18.7.2018 09:30 0 0 56,1 25,7
42 18.7.2018 09:00 0 0 59,3 25,6
43 18.7.2018 08:30 0 0 57,4 25,4
44 18.7.2018 08:00 0 0 57,6 24,2
45 18.7.2018 07:30 0 0 50,6 24,4
46 18.7.2018 07:00 0 0 45,7 24,9
47 18.7.2018 06:30 0 0 52,1 23,1
48 18.7.2018 06:00 0 0 59,5 20,5
© 2011 Ministrstvo za kmetijstvo, gozdarstvo in prehrano. Vse pravice pridržane.